createdAt,value
2023-07-29T00:01:23.293Z,2.50
2023-07-29T00:03:51.185Z,2.40
2023-07-29T00:06:19.220Z,2.40
2023-07-29T00:08:47.334Z,2.60
2023-07-29T00:11:15.258Z,2.30
2023-07-29T00:13:43.259Z,2.50
2023-07-29T00:16:11.662Z,2.50
2023-07-29T00:18:40.098Z,2.30
2023-07-29T00:21:08.824Z,2.60
2023-07-29T00:23:36.853Z,2.20
2023-07-29T00:26:04.945Z,2.30
2023-07-29T00:28:33.531Z,2.10
2023-07-29T00:31:02.930Z,2.50
2023-07-29T00:33:30.942Z,2.20
2023-07-29T00:36:02.930Z,2.50
2023-07-29T00:38:31.012Z,2.50
2023-07-29T00:41:00.406Z,2.80
2023-07-29T00:43:28.367Z,2.20
2023-07-29T00:45:58.596Z,2.40
2023-07-29T00:48:27.905Z,2.10
2023-07-29T00:50:56.620Z,2.10
2023-07-29T00:53:24.773Z,2.30
2023-07-29T00:55:52.851Z,2.50
2023-07-29T00:58:20.927Z,2.60
2023-07-29T01:00:49.174Z,2.40
2023-07-29T01:03:18.486Z,2.70
2023-07-29T01:06:32.168Z,3.00
2023-07-29T01:09:07.982Z,2.70
2023-07-29T01:11:42.158Z,2.60
2023-07-29T01:14:16.928Z,2.40
2023-07-29T01:16:56.770Z,2.40
2023-07-29T01:19:41.420Z,2.70
2023-07-29T01:22:11.662Z,2.10
2023-07-29T01:24:40.596Z,2.30
2023-07-29T01:27:08.803Z,2.40
2023-07-29T01:29:36.991Z,2.50
2023-07-29T01:32:34.367Z,2.50
2023-07-29T01:35:20.446Z,2.40
2023-07-29T01:37:52.540Z,2.40
2023-07-29T01:40:24.982Z,1.90
2023-07-29T01:42:53.151Z,1.40
2023-07-29T01:45:26.567Z,2.50
2023-07-29T01:47:54.785Z,2.20
2023-07-29T01:50:23.598Z,2.30
2023-07-29T01:52:51.557Z,2.60
2023-07-29T01:55:19.769Z,2.50
2023-07-29T01:57:47.801Z,2.40
2023-07-29T02:00:17.042Z,2.70
2023-07-29T02:02:46.980Z,1.90
2023-07-29T02:05:15.735Z,2.30
2023-07-29T02:07:43.736Z,2.30
2023-07-29T02:10:11.717Z,2.20
2023-07-29T02:12:40.137Z,2.50
2023-07-29T02:15:09.036Z,2.30
2023-07-29T02:17:37.637Z,2.40
2023-07-29T02:20:07.314Z,2.10
2023-07-29T02:22:35.869Z,2.30
2023-07-29T02:25:04.457Z,2.30
2023-07-29T02:27:32.759Z,2.10
2023-07-29T02:30:01.055Z,1.90
2023-07-29T02:32:29.483Z,2.50
2023-07-29T02:34:57.890Z,2.20
2023-07-29T02:37:26.164Z,1.90
2023-07-29T02:39:54.088Z,2.10
2023-07-29T02:42:22.418Z,2.50
2023-07-29T02:44:50.699Z,1.90
2023-07-29T02:47:18.623Z,2.50
2023-07-29T02:49:46.876Z,2.50
2023-07-29T02:52:14.776Z,2.30
2023-07-29T02:54:42.664Z,2.20
2023-07-29T02:57:10.829Z,2.10
2023-07-29T02:59:38.901Z,2.00
2023-07-29T03:02:06.965Z,2.50
2023-07-29T03:04:35.151Z,2.10
2023-07-29T03:07:03.524Z,2.50
2023-07-29T03:09:31.587Z,2.30
2023-07-29T03:12:00.518Z,3.30
2023-07-29T03:14:29.026Z,2.50
2023-07-29T03:16:56.977Z,2.20
2023-07-29T03:19:24.984Z,2.40
2023-07-29T03:21:53.228Z,2.30
2023-07-29T03:24:21.173Z,1.90
2023-07-29T03:26:49.157Z,2.70
2023-07-29T03:29:17.135Z,2.20
2023-07-29T03:31:45.353Z,2.00
2023-07-29T03:34:13.834Z,2.20
2023-07-29T03:36:43.651Z,2.50
2023-07-29T03:39:11.843Z,2.90
2023-07-29T03:41:40.020Z,2.80
2023-07-29T03:44:08.173Z,2.90
2023-07-29T03:46:36.484Z,3.50
2023-07-29T03:49:05.135Z,2.60
2023-07-29T03:51:33.331Z,2.50
2023-07-29T03:54:01.476Z,2.30
2023-07-29T03:56:29.571Z,2.70
2023-07-29T03:59:07.244Z,3.90
2023-07-29T04:01:35.377Z,3.00
2023-07-29T04:04:03.682Z,2.90
2023-07-29T04:06:32.104Z,3.80
2023-07-29T04:09:00.382Z,3.90
2023-07-29T04:11:28.980Z,2.60
2023-07-29T04:13:56.984Z,3.20
2023-07-29T04:16:25.046Z,3.00
2023-07-29T04:18:53.090Z,3.10
2023-07-29T04:21:21.557Z,2.70
2023-07-29T04:23:49.502Z,2.40
2023-07-29T04:26:17.652Z,3.20
2023-07-29T04:28:45.629Z,3.00
2023-07-29T04:31:13.788Z,2.80
2023-07-29T04:33:41.899Z,3.40
2023-07-29T04:36:10.255Z,3.90
2023-07-29T04:38:38.924Z,4.50
2023-07-29T04:41:08.348Z,3.80
2023-07-29T04:43:36.404Z,4.30
2023-07-29T04:46:09.125Z,3.20
2023-07-29T04:48:37.123Z,3.60
2023-07-29T04:51:05.034Z,3.00
2023-07-29T04:53:33.297Z,3.30
2023-07-29T04:56:01.187Z,4.50
2023-07-29T04:58:30.898Z,4.00
2023-07-29T05:01:00.230Z,2.60
2023-07-29T05:03:28.281Z,3.30
2023-07-29T05:05:57.567Z,2.70
2023-07-29T05:08:27.875Z,2.80
2023-07-29T05:10:57.075Z,2.80
2023-07-29T05:13:25.439Z,3.40
2023-07-29T05:15:55.107Z,3.10
2023-07-29T05:18:23.374Z,2.50
2023-07-29T05:20:51.516Z,2.80
2023-07-29T05:23:26.083Z,2.80
2023-07-29T05:25:54.205Z,2.80
2023-07-29T05:28:22.249Z,2.60
2023-07-29T05:30:50.248Z,3.60
2023-07-29T05:33:18.373Z,2.90
2023-07-29T05:35:48.475Z,3.00
2023-07-29T05:38:17.022Z,3.00
2023-07-29T05:40:44.992Z,3.00
2023-07-29T05:43:13.052Z,3.00
2023-07-29T05:45:41.649Z,3.00
2023-07-29T05:48:09.641Z,2.80
2023-07-29T05:50:37.652Z,2.60
2023-07-29T05:53:05.640Z,2.70
2023-07-29T05:55:33.540Z,2.80
2023-07-29T05:58:01.803Z,2.70
2023-07-29T06:00:29.885Z,2.50
2023-07-29T06:02:58.840Z,2.90
2023-07-29T06:05:26.887Z,2.90
2023-07-29T06:07:55.132Z,2.90
2023-07-29T06:10:23.441Z,2.80
2023-07-29T06:12:51.606Z,4.40
2023-07-29T06:15:23.076Z,2.50
2023-07-29T06:17:52.646Z,3.00
2023-07-29T06:20:22.213Z,2.90
2023-07-29T06:22:50.205Z,2.90
2023-07-29T06:25:18.521Z,2.70
2023-07-29T06:27:46.502Z,2.80
2023-07-29T06:30:14.481Z,2.90
2023-07-29T06:32:42.699Z,3.10
2023-07-29T06:35:10.590Z,2.90
2023-07-29T06:37:38.491Z,2.90
2023-07-29T06:40:07.044Z,2.80
2023-07-29T06:42:35.272Z,3.00
2023-07-29T06:45:03.397Z,2.50
2023-07-29T06:47:31.607Z,2.80
2023-07-29T06:49:59.710Z,3.00
2023-07-29T06:52:27.784Z,2.50
2023-07-29T06:54:55.921Z,2.70
2023-07-29T06:57:24.623Z,2.30
2023-07-29T06:59:52.602Z,2.20
2023-07-29T07:02:20.625Z,2.50
2023-07-29T07:04:48.750Z,2.40
2023-07-29T07:07:17.509Z,2.20
2023-07-29T07:09:45.452Z,2.60
2023-07-29T07:12:14.159Z,2.30
2023-07-29T07:14:42.054Z,2.50
2023-07-29T07:17:12.407Z,2.50
2023-07-29T07:19:41.866Z,2.60
2023-07-29T07:22:09.883Z,2.60
2023-07-29T07:24:37.989Z,2.40
2023-07-29T07:27:06.684Z,2.30
2023-07-29T07:29:34.743Z,2.30
2023-07-29T07:32:03.501Z,2.30
2023-07-29T07:34:31.625Z,2.50
2023-07-29T07:36:59.542Z,2.20
2023-07-29T07:39:28.379Z,2.10
2023-07-29T07:41:56.294Z,2.20
2023-07-29T07:44:24.403Z,2.70
2023-07-29T07:46:52.387Z,2.70
2023-07-29T07:49:20.752Z,2.20
2023-07-29T07:51:49.119Z,2.50
2023-07-29T07:54:17.742Z,1.90
2023-07-29T07:56:45.784Z,2.70
2023-07-29T07:59:16.048Z,2.10
2023-07-29T08:01:46.081Z,2.60
2023-07-29T08:04:14.298Z,2.50
2023-07-29T08:06:42.309Z,2.10
2023-07-29T08:09:10.572Z,2.50
2023-07-29T08:11:38.731Z,2.40
2023-07-29T08:14:06.606Z,2.00
2023-07-29T08:16:34.748Z,2.30
2023-07-29T08:19:02.907Z,2.40
2023-07-29T08:21:30.917Z,2.50
2023-07-29T08:23:59.162Z,2.40
2023-07-29T08:26:27.126Z,2.40
2023-07-29T08:28:55.430Z,2.40
2023-07-29T08:31:23.564Z,2.60
2023-07-29T08:33:51.730Z,2.40
2023-07-29T08:36:19.697Z,2.30
2023-07-29T08:38:47.819Z,2.60
2023-07-29T08:41:20.994Z,2.20
2023-07-29T08:43:57.398Z,3.20
2023-07-29T08:46:25.543Z,2.50
2023-07-29T08:48:54.022Z,2.30
2023-07-29T08:51:24.390Z,2.70
2023-07-29T08:53:53.121Z,3.00
2023-07-29T08:56:21.112Z,2.40
2023-07-29T08:58:49.925Z,2.40
2023-07-29T09:01:18.249Z,2.40
2023-07-29T09:03:46.600Z,2.30
2023-07-29T09:06:15.979Z,2.50
2023-07-29T09:08:45.660Z,2.60
2023-07-29T09:11:18.215Z,2.70
2023-07-29T09:13:46.403Z,2.40
2023-07-29T09:16:15.811Z,2.40
2023-07-29T09:18:43.922Z,2.90
2023-07-29T09:21:12.685Z,3.10
2023-07-29T09:23:44.857Z,2.90
2023-07-29T09:26:13.065Z,2.80
2023-07-29T09:28:42.479Z,2.60
2023-07-29T09:31:21.929Z,2.60
2023-07-29T09:33:50.309Z,2.40
2023-07-29T09:36:18.298Z,1.90
2023-07-29T09:38:47.044Z,2.30
2023-07-29T09:41:17.007Z,2.50
2023-07-29T09:43:45.084Z,2.40
2023-07-29T09:46:13.145Z,2.50
2023-07-29T09:48:42.859Z,2.50
2023-07-29T09:51:12.998Z,2.40
2023-07-29T09:53:47.360Z,2.50
2023-07-29T09:56:16.843Z,2.70
2023-07-29T09:58:49.575Z,2.90
2023-07-29T10:01:18.916Z,2.90
2023-07-29T10:03:47.321Z,2.60
2023-07-29T10:06:16.870Z,4.20
2023-07-29T10:08:45.252Z,2.10
2023-07-29T10:11:13.914Z,1.80
2023-07-29T10:13:42.172Z,2.30
2023-07-29T10:16:12.632Z,2.40
2023-07-29T10:18:42.339Z,2.30
2023-07-29T10:21:12.784Z,2.50
2023-07-29T10:23:49.535Z,2.10
2023-07-29T10:26:21.169Z,2.80
2023-07-29T10:28:53.162Z,2.20
2023-07-29T10:31:23.969Z,2.50
2023-07-29T10:33:52.677Z,2.70
2023-07-29T10:36:23.054Z,2.10
2023-07-29T10:38:51.428Z,2.10
2023-07-29T10:41:19.404Z,2.50
2023-07-29T10:43:47.510Z,2.90
2023-07-29T10:46:23.481Z,2.20
2023-07-29T10:48:51.509Z,2.50
2023-07-29T10:51:30.392Z,2.60
2023-07-29T10:54:02.738Z,3.20
2023-07-29T10:56:32.545Z,2.20
2023-07-29T10:59:24.471Z,2.20
2023-07-29T11:01:54.207Z,2.60
2023-07-29T11:04:25.053Z,2.30
2023-07-29T11:07:08.602Z,2.60
2023-07-29T11:09:48.936Z,2.70
2023-07-29T11:12:47.241Z,2.40
2023-07-29T11:15:26.212Z,2.70
2023-07-29T11:17:54.311Z,2.60
2023-07-29T11:20:27.816Z,2.70
2023-07-29T11:22:57.369Z,2.20
2023-07-29T11:25:26.518Z,2.50
2023-07-29T11:28:03.344Z,2.70
2023-07-29T11:30:35.350Z,2.60
2023-07-29T11:33:04.670Z,2.20
2023-07-29T11:35:33.720Z,2.20
2023-07-29T11:38:01.784Z,2.20
2023-07-29T11:40:30.359Z,2.40
2023-07-29T11:42:58.337Z,2.10
2023-07-29T11:45:35.629Z,2.40
2023-07-29T11:48:10.536Z,2.10
2023-07-29T11:50:38.865Z,2.50
2023-07-29T11:53:06.933Z,2.80
2023-07-29T11:55:36.193Z,2.30
2023-07-29T11:58:05.647Z,2.30
2023-07-29T12:00:34.695Z,2.40
2023-07-29T12:03:03.395Z,2.60
2023-07-29T12:05:32.023Z,2.40
2023-07-29T12:08:00.176Z,2.30
2023-07-29T12:10:28.421Z,2.30
2023-07-29T12:12:56.789Z,2.80
2023-07-29T12:15:29.629Z,2.00
2023-07-29T12:17:59.290Z,2.50
2023-07-29T12:20:28.750Z,2.30
2023-07-29T12:22:58.265Z,2.30
2023-07-29T12:25:28.344Z,2.10
2023-07-29T12:27:56.835Z,2.20
2023-07-29T12:30:26.420Z,2.10
2023-07-29T12:32:54.710Z,2.60
2023-07-29T12:35:23.308Z,2.20
2023-07-29T12:38:01.250Z,2.30
2023-07-29T12:40:29.563Z,2.50
2023-07-29T12:42:57.810Z,2.50
2023-07-29T12:45:28.577Z,2.30
2023-07-29T12:47:57.227Z,2.70
2023-07-29T12:50:25.518Z,2.50
2023-07-29T12:52:53.507Z,2.40
2023-07-29T12:55:23.637Z,2.30
2023-07-29T12:57:52.760Z,3.20
2023-07-29T13:00:20.850Z,3.20
2023-07-29T13:02:49.326Z,3.00
2023-07-29T13:05:18.268Z,2.50
2023-07-29T13:07:46.293Z,2.80
2023-07-29T13:10:15.231Z,4.00
2023-07-29T13:12:43.280Z,4.10
2023-07-29T13:15:11.588Z,3.80
2023-07-29T13:17:40.590Z,3.90
2023-07-29T13:20:09.752Z,2.70
2023-07-29T13:22:38.245Z,2.50
2023-07-29T13:25:06.399Z,2.30
2023-07-29T13:27:34.403Z,2.80
2023-07-29T13:30:02.394Z,2.80
2023-07-29T13:32:30.479Z,2.40
2023-07-29T13:35:00.133Z,2.50
2023-07-29T13:37:28.070Z,2.70
2023-07-29T13:39:56.066Z,2.60
2023-07-29T13:42:24.318Z,2.70
2023-07-29T13:44:52.243Z,2.20
2023-07-29T13:47:20.147Z,2.10
2023-07-29T13:49:48.155Z,2.80
2023-07-29T13:52:16.437Z,2.50
2023-07-29T13:54:44.589Z,2.30
2023-07-29T13:57:12.653Z,2.60
2023-07-29T13:59:40.653Z,2.50
2023-07-29T14:02:09.027Z,2.90
2023-07-29T14:04:37.306Z,2.60
2023-07-29T14:07:05.901Z,2.20
2023-07-29T14:09:34.433Z,2.30
2023-07-29T14:12:02.714Z,2.40
2023-07-29T14:14:30.651Z,2.70
2023-07-29T14:16:58.576Z,2.20
2023-07-29T14:19:28.012Z,2.30
2023-07-29T14:21:55.977Z,2.30
2023-07-29T14:24:23.994Z,2.30
2023-07-29T14:26:52.091Z,2.40
2023-07-29T14:29:20.552Z,2.30
2023-07-29T14:31:48.904Z,2.60
2023-07-29T14:34:17.189Z,2.50
2023-07-29T14:36:45.326Z,2.10
2023-07-29T14:39:13.242Z,2.50
2023-07-29T14:41:41.248Z,2.60
2023-07-29T14:44:09.216Z,2.40
2023-07-29T14:46:37.351Z,2.80
2023-07-29T14:49:05.604Z,2.50
2023-07-29T14:51:33.807Z,2.80
2023-07-29T14:54:01.754Z,6.20
2023-07-29T14:56:29.766Z,2.50
2023-07-29T14:58:57.716Z,2.80
2023-07-29T15:01:26.115Z,2.80
2023-07-29T15:03:54.258Z,2.50
2023-07-29T15:06:22.726Z,2.50
2023-07-29T15:08:50.898Z,2.80
2023-07-29T15:11:19.101Z,2.50
2023-07-29T15:13:47.103Z,2.60
2023-07-29T15:16:15.137Z,2.70
2023-07-29T15:18:43.150Z,2.60
2023-07-29T15:21:11.051Z,2.80
2023-07-29T15:23:39.000Z,2.90
2023-07-29T15:26:07.002Z,3.10
2023-07-29T15:28:35.005Z,2.50
2023-07-29T15:31:03.124Z,4.30
2023-07-29T15:33:31.158Z,2.20
2023-07-29T15:35:59.076Z,2.70
2023-07-29T15:38:27.198Z,2.60
2023-07-29T15:40:55.833Z,2.40
2023-07-29T15:43:24.926Z,2.70
2023-07-29T15:45:53.392Z,2.50
2023-07-29T15:48:21.259Z,2.70
2023-07-29T15:50:49.549Z,2.90
2023-07-29T15:53:17.562Z,2.20
2023-07-29T15:55:47.112Z,2.70
2023-07-29T15:58:15.315Z,2.60
2023-07-29T16:00:43.349Z,2.90
2023-07-29T16:03:11.532Z,3.00
2023-07-29T16:05:39.806Z,2.90
2023-07-29T16:08:07.993Z,3.00
2023-07-29T16:10:36.164Z,3.30
2023-07-29T16:13:06.888Z,3.30
2023-07-29T16:15:34.905Z,3.00
2023-07-29T16:18:03.163Z,2.90
2023-07-29T16:20:31.426Z,3.30
2023-07-29T16:22:59.576Z,3.30
2023-07-29T16:25:27.453Z,3.00
2023-07-29T16:27:57.431Z,3.00
2023-07-29T16:30:25.638Z,3.30
2023-07-29T16:32:53.636Z,3.30
2023-07-29T16:35:21.741Z,3.70
2023-07-29T16:37:51.207Z,3.60
2023-07-29T16:40:19.434Z,3.70
2023-07-29T16:42:47.625Z,3.70
2023-07-29T16:45:16.514Z,4.90
2023-07-29T16:47:44.638Z,3.90
2023-07-29T16:50:12.861Z,4.30
2023-07-29T16:52:40.830Z,4.20
2023-07-29T16:55:10.836Z,3.90
2023-07-29T16:57:39.637Z,3.50
2023-07-29T17:00:08.522Z,3.30
2023-07-29T17:02:36.629Z,3.70
2023-07-29T17:05:07.562Z,3.90
2023-07-29T17:07:35.708Z,3.20
2023-07-29T17:10:03.890Z,3.60
2023-07-29T17:12:32.078Z,3.60
2023-07-29T17:15:00.234Z,3.00
2023-07-29T17:17:28.188Z,3.20
2023-07-29T17:19:56.273Z,3.00
2023-07-29T17:22:24.254Z,3.20
2023-07-29T17:24:52.473Z,3.50
2023-07-29T17:27:20.505Z,3.00
2023-07-29T17:29:48.761Z,2.80
2023-07-29T17:32:17.341Z,3.00
2023-07-29T17:34:45.718Z,3.30
2023-07-29T17:37:14.643Z,3.20
2023-07-29T17:39:43.451Z,3.20
2023-07-29T17:42:11.470Z,2.80
2023-07-29T17:44:39.849Z,2.50
2023-07-29T17:47:07.947Z,2.90
2023-07-29T17:49:36.049Z,3.10
2023-07-29T17:52:05.319Z,3.00
2023-07-29T17:54:33.395Z,3.00
2023-07-29T17:57:01.533Z,3.50
2023-07-29T17:59:30.214Z,3.70
2023-07-29T18:01:58.161Z,3.50
2023-07-29T18:04:26.559Z,4.20
2023-07-29T18:06:56.185Z,4.30
2023-07-29T18:09:25.569Z,3.30
2023-07-29T18:11:54.524Z,3.40
2023-07-29T18:14:23.577Z,4.00
2023-07-29T18:16:51.819Z,3.50
2023-07-29T18:19:22.672Z,4.00
2023-07-29T18:21:50.682Z,4.30
2023-07-29T18:24:18.776Z,4.20
2023-07-29T18:26:46.777Z,4.50
2023-07-29T18:29:14.804Z,6.20
2023-07-29T18:31:42.829Z,5.20
2023-07-29T18:34:10.994Z,5.80
2023-07-29T18:36:39.480Z,5.30
2023-07-29T18:39:08.317Z,5.80
2023-07-29T18:41:36.303Z,5.10
2023-07-29T18:44:04.412Z,5.20
2023-07-29T18:46:32.775Z,5.50
2023-07-29T18:49:00.943Z,5.90
2023-07-29T18:51:28.901Z,5.40
2023-07-29T18:53:56.877Z,5.30
2023-07-29T18:56:24.875Z,5.30
2023-07-29T18:58:52.926Z,5.00
2023-07-29T19:01:23.157Z,4.70
2023-07-29T19:03:51.808Z,5.20
2023-07-29T19:06:20.226Z,4.80
2023-07-29T19:08:50.349Z,4.30
2023-07-29T19:11:19.029Z,4.50
2023-07-29T19:13:47.004Z,4.80
2023-07-29T19:16:20.488Z,5.60
2023-07-29T19:18:49.608Z,5.70
2023-07-29T19:21:19.865Z,4.50
2023-07-29T19:23:47.924Z,4.80
2023-07-29T19:26:22.644Z,4.80
2023-07-29T19:28:51.785Z,4.60
2023-07-29T19:31:20.376Z,4.00
2023-07-29T19:33:48.511Z,4.20
2023-07-29T19:36:16.627Z,4.00
2023-07-29T19:38:44.806Z,4.90
2023-07-29T19:41:13.158Z,5.10
2023-07-29T19:43:41.420Z,5.20
2023-07-29T19:48:40.838Z,5.00
2023-07-29T19:51:08.866Z,4.70
2023-07-29T19:53:37.325Z,4.00
2023-07-29T19:56:05.930Z,4.60
2023-07-29T19:58:33.964Z,4.80
2023-07-29T20:01:02.151Z,4.90
2023-07-29T20:03:30.436Z,5.60
2023-07-29T20:06:00.453Z,5.70
2023-07-29T20:08:28.616Z,6.40
2023-07-29T20:10:56.788Z,6.00
2023-07-29T20:13:28.026Z,7.30
2023-07-29T20:15:56.994Z,6.40
2023-07-29T20:18:27.039Z,5.30
2023-07-29T20:20:55.101Z,5.40
2023-07-29T20:23:23.157Z,5.40
2023-07-29T20:25:51.524Z,5.30
2023-07-29T20:28:22.192Z,5.60
2023-07-29T20:31:00.723Z,6.80
2023-07-29T20:33:29.053Z,5.30
2023-07-29T20:35:58.943Z,5.60
2023-07-29T20:38:27.547Z,5.80
2023-07-29T20:40:57.450Z,5.50
2023-07-29T20:43:25.727Z,6.00
2023-07-29T20:45:54.523Z,5.80
2023-07-29T20:48:23.408Z,6.20
2023-07-29T20:50:53.491Z,6.00
2023-07-29T20:53:22.456Z,5.80
2023-07-29T20:55:52.100Z,6.00
2023-07-29T20:58:20.521Z,6.40
2023-07-29T21:00:48.530Z,6.60
2023-07-29T21:03:16.988Z,6.80
2023-07-29T21:05:46.933Z,6.20
2023-07-29T21:08:15.312Z,6.20
2023-07-29T21:10:43.980Z,6.50
2023-07-29T21:13:12.144Z,5.60
2023-07-29T21:15:40.220Z,5.90
2023-07-29T21:18:08.237Z,5.80
2023-07-29T21:20:36.355Z,6.60
2023-07-29T21:23:04.321Z,6.30
2023-07-29T21:25:32.406Z,6.10
2023-07-29T21:28:01.071Z,6.00
2023-07-29T21:30:31.328Z,6.40
2023-07-29T21:33:00.167Z,6.10
2023-07-29T21:35:28.186Z,5.90
2023-07-29T21:37:56.236Z,6.00
2023-07-29T21:40:24.465Z,5.00
2023-07-29T21:42:52.793Z,5.60
2023-07-29T21:45:20.896Z,5.70
2023-07-29T21:47:48.908Z,5.90
2023-07-29T21:50:16.932Z,6.00
2023-07-29T21:52:45.018Z,5.60
2023-07-29T21:55:13.227Z,4.90
2023-07-29T21:57:41.502Z,5.20
2023-07-29T22:00:10.344Z,5.40
2023-07-29T22:02:38.464Z,5.50
2023-07-29T22:05:07.128Z,5.60
2023-07-29T22:07:35.136Z,6.60
2023-07-29T22:10:03.095Z,6.60
2023-07-29T22:12:32.506Z,6.10
2023-07-29T22:15:01.511Z,6.30
2023-07-29T22:17:29.526Z,5.90
2023-07-29T22:19:57.472Z,5.30
2023-07-29T22:22:25.505Z,5.50
2023-07-29T22:24:53.893Z,5.00
2023-07-29T22:27:22.006Z,5.80
2023-07-29T22:29:50.088Z,4.90
2023-07-29T22:32:18.460Z,5.10
2023-07-29T22:34:46.682Z,5.80
2023-07-29T22:37:14.677Z,5.50
2023-07-29T22:39:44.373Z,5.80
2023-07-29T22:42:12.530Z,5.80
2023-07-29T22:44:40.808Z,5.40
2023-07-29T22:47:08.940Z,5.30
2023-07-29T22:49:37.121Z,5.40
2023-07-29T22:52:05.743Z,5.30
2023-07-29T22:54:33.711Z,5.50
2023-07-29T22:57:01.692Z,5.80
2023-07-29T22:59:29.645Z,5.50
2023-07-29T23:01:57.664Z,5.20
2023-07-29T23:04:25.894Z,5.40
2023-07-29T23:06:53.898Z,5.10
2023-07-29T23:09:22.044Z,5.80
2023-07-29T23:11:50.020Z,5.50
2023-07-29T23:14:18.084Z,5.50
2023-07-29T23:16:46.009Z,5.30
2023-07-29T23:19:14.209Z,5.00
2023-07-29T23:21:42.301Z,4.70
2023-07-29T23:24:10.288Z,4.90
2023-07-29T23:26:38.217Z,4.70
2023-07-29T23:29:06.178Z,5.90
2023-07-29T23:31:34.158Z,5.80
2023-07-29T23:34:02.444Z,5.40
2023-07-29T23:36:32.140Z,5.80
2023-07-29T23:39:00.078Z,5.80
2023-07-29T23:41:28.280Z,5.20
2023-07-29T23:43:56.212Z,5.40
2023-07-29T23:46:24.156Z,4.80
2023-07-29T23:48:52.494Z,5.20
2023-07-29T23:51:20.483Z,5.50
2023-07-29T23:53:48.415Z,5.30
2023-07-29T23:56:17.406Z,6.40
2023-07-29T23:58:45.388Z,5.20
